createdAt,value
2022-09-03T00:05:52.256Z,1.63
2022-09-03T00:08:40.789Z,1.88
2022-09-03T00:11:13.808Z,2.00
2022-09-03T00:13:53.747Z,1.67
2022-09-03T00:16:27.324Z,1.90
2022-09-03T00:19:03.794Z,1.60
2022-09-03T00:21:52.880Z,1.77
2022-09-03T00:24:23.417Z,1.85
2022-09-03T00:26:56.020Z,1.90
2022-09-03T00:29:37.104Z,1.70
2022-09-03T00:32:11.098Z,2.10
2022-09-03T00:34:48.971Z,1.95
2022-09-03T00:37:16.745Z,1.90
2022-09-03T00:39:44.573Z,1.67
2022-09-03T00:42:27.248Z,2.00
2022-09-03T00:45:01.133Z,1.98
2022-09-03T00:47:57.987Z,2.22
2022-09-03T00:50:31.147Z,1.70
2022-09-03T00:53:04.042Z,2.25
2022-09-03T00:55:34.338Z,1.63
2022-09-03T00:58:21.744Z,1.90
2022-09-03T01:00:53.251Z,1.85
2022-09-03T01:03:24.666Z,2.03
2022-09-03T01:06:01.815Z,1.90
2022-09-03T01:09:12.394Z,2.10
2022-09-03T01:11:59.927Z,1.90
2022-09-03T01:14:37.733Z,2.15
2022-09-03T01:17:37.602Z,2.03
2022-09-03T01:20:30.490Z,2.17
2022-09-03T01:23:22.396Z,2.00
2022-09-03T01:26:02.158Z,1.80
2022-09-03T01:28:42.636Z,2.10
2022-09-03T01:31:27.186Z,1.98
2022-09-03T01:34:18.463Z,1.70
2022-09-03T01:37:10.501Z,1.88
2022-09-03T01:40:07.434Z,1.67
2022-09-03T01:43:01.359Z,1.80
2022-09-03T01:45:32.495Z,1.73
2022-09-03T01:48:27.351Z,1.80
2022-09-03T01:51:23.839Z,2.00
2022-09-03T01:54:18.088Z,1.70
2022-09-03T01:57:35.886Z,1.48
2022-09-03T02:00:13.460Z,1.63
2022-09-03T02:02:44.424Z,1.75
2022-09-03T02:05:14.519Z,1.83
2022-09-03T02:07:46.863Z,1.83
2022-09-03T02:10:18.176Z,1.95
2022-09-03T02:12:55.408Z,1.70
2022-09-03T02:15:25.817Z,1.70
2022-09-03T02:17:57.455Z,1.83
2022-09-03T02:20:28.374Z,1.40
2022-09-03T02:22:57.924Z,1.70
2022-09-03T02:25:35.979Z,1.75
2022-09-03T02:28:06.606Z,2.13
2022-09-03T02:30:44.080Z,1.50
2022-09-03T02:33:11.543Z,1.75
2022-09-03T02:35:40.846Z,1.60
2022-09-03T02:38:18.061Z,1.80
2022-09-03T02:40:46.551Z,1.70
2022-09-03T02:43:20.985Z,1.90
2022-09-03T02:45:57.843Z,1.90
2022-09-03T02:48:25.832Z,1.60
2022-09-03T02:50:53.239Z,2.05
2022-09-03T02:53:20.814Z,1.60
2022-09-03T02:55:48.263Z,1.80
2022-09-03T02:58:15.558Z,1.60
2022-09-03T03:00:43.122Z,1.77
2022-09-03T03:03:10.489Z,1.80
2022-09-03T03:05:46.902Z,1.90
2022-09-03T03:08:21.356Z,1.80
2022-09-03T03:10:49.713Z,1.70
2022-09-03T03:13:17.041Z,1.70
2022-09-03T03:15:45.095Z,1.60
2022-09-03T03:18:14.203Z,1.90
2022-09-03T03:20:42.642Z,1.70
2022-09-03T03:23:11.013Z,1.60
2022-09-03T03:25:39.974Z,2.00
2022-09-03T03:28:08.140Z,1.92
2022-09-03T03:30:39.993Z,1.80
2022-09-03T03:33:08.313Z,1.80
2022-09-03T03:35:36.848Z,1.88
2022-09-03T03:38:05.231Z,1.88
2022-09-03T03:40:32.702Z,1.75
2022-09-03T03:42:59.923Z,1.75
2022-09-03T03:45:27.110Z,1.80
2022-09-03T03:47:58.490Z,1.50
2022-09-03T03:50:26.206Z,1.88
2022-09-03T03:52:53.449Z,1.70
2022-09-03T03:55:20.732Z,1.55
2022-09-03T03:57:47.907Z,1.70
2022-09-03T04:00:16.064Z,1.90
2022-09-03T04:02:43.639Z,1.50
2022-09-03T04:05:11.561Z,1.70
2022-09-03T04:07:39.071Z,1.73
2022-09-03T04:10:06.983Z,1.77
2022-09-03T04:12:34.274Z,1.52
2022-09-03T04:15:01.870Z,2.00
2022-09-03T04:17:32.176Z,1.70
2022-09-03T04:19:59.701Z,1.55
2022-09-03T04:22:29.848Z,1.60
2022-09-03T04:24:57.222Z,1.80
2022-09-03T04:27:24.781Z,1.73
2022-09-03T04:29:52.091Z,1.80
2022-09-03T04:32:37.743Z,1.98
2022-09-03T04:35:05.248Z,1.52
2022-09-03T04:37:33.515Z,1.77
2022-09-03T04:40:00.849Z,1.65
2022-09-03T04:42:28.292Z,1.90
2022-09-03T04:44:55.477Z,1.90
2022-09-03T04:47:22.767Z,2.03
2022-09-03T04:49:49.995Z,1.80
2022-09-03T04:52:17.441Z,2.05
2022-09-03T04:54:44.905Z,1.83
2022-09-03T04:57:12.248Z,1.80
2022-09-03T04:59:41.286Z,1.65
2022-09-03T05:02:09.872Z,1.52
2022-09-03T05:04:37.333Z,1.77
2022-09-03T05:07:04.731Z,1.73
2022-09-03T05:09:32.171Z,1.67
2022-09-03T05:11:59.498Z,1.90
2022-09-03T05:14:27.060Z,1.83
2022-09-03T05:16:56.029Z,1.70
2022-09-03T05:19:23.423Z,1.77
2022-09-03T05:21:50.716Z,1.80
2022-09-03T05:24:18.798Z,1.75
2022-09-03T05:26:45.996Z,1.83
2022-09-03T05:29:14.499Z,1.90
2022-09-03T05:31:42.013Z,2.00
2022-09-03T05:34:10.272Z,1.70
2022-09-03T05:36:43.609Z,1.80
2022-09-03T05:39:10.914Z,1.67
2022-09-03T05:41:38.183Z,1.73
2022-09-03T05:44:06.180Z,1.77
2022-09-03T05:46:34.461Z,1.73
2022-09-03T05:49:03.741Z,1.77
2022-09-03T05:51:32.488Z,1.70
2022-09-03T05:54:00.229Z,1.70
2022-09-03T05:56:30.782Z,1.60
2022-09-03T05:59:05.803Z,1.80
2022-09-03T06:01:35.582Z,1.90
2022-09-03T06:04:14.113Z,1.60
2022-09-03T06:06:44.341Z,2.15
2022-09-03T06:09:30.726Z,1.60
2022-09-03T06:11:58.097Z,1.55
2022-09-03T06:14:27.030Z,1.55
2022-09-03T06:16:55.900Z,1.70
2022-09-03T06:19:23.438Z,1.60
2022-09-03T06:21:50.756Z,1.60
2022-09-03T06:24:28.412Z,2.13
2022-09-03T06:26:57.843Z,1.60
2022-09-03T06:29:25.283Z,1.65
2022-09-03T06:31:54.108Z,1.92
2022-09-03T06:34:22.894Z,1.63
2022-09-03T06:36:50.795Z,1.70
2022-09-03T06:39:18.043Z,1.80
2022-09-03T06:41:48.404Z,1.60
2022-09-03T06:44:15.795Z,1.58
2022-09-03T06:46:43.105Z,1.92
2022-09-03T06:49:11.746Z,1.60
2022-09-03T06:51:43.466Z,1.67
2022-09-03T06:54:12.704Z,1.75
2022-09-03T06:56:41.752Z,1.70
2022-09-03T06:59:14.713Z,1.75
2022-09-03T07:01:45.524Z,1.63
2022-09-03T07:04:16.857Z,1.55
2022-09-03T07:06:47.365Z,1.48
2022-09-03T07:09:15.979Z,1.45
2022-09-03T07:11:47.721Z,1.75
2022-09-03T07:14:19.863Z,1.85
2022-09-03T07:16:48.792Z,1.65
2022-09-03T07:19:16.353Z,1.48
2022-09-03T07:21:49.199Z,1.58
2022-09-03T07:24:18.749Z,1.75
2022-09-03T07:26:47.337Z,1.60
2022-09-03T07:29:16.166Z,1.50
2022-09-03T07:31:44.375Z,1.60
2022-09-03T07:34:13.731Z,1.40
2022-09-03T07:36:43.385Z,1.73
2022-09-03T07:39:12.626Z,1.50
2022-09-03T07:41:45.961Z,1.50
2022-09-03T07:44:15.531Z,1.50
2022-09-03T07:46:45.603Z,1.38
2022-09-03T07:49:13.322Z,1.90
2022-09-03T07:51:41.097Z,1.40
2022-09-03T07:54:11.424Z,2.58
2022-09-03T07:56:41.372Z,1.50
2022-09-03T07:59:09.328Z,1.67
2022-09-03T08:01:41.182Z,1.70
2022-09-03T08:04:09.964Z,1.30
2022-09-03T08:06:38.570Z,1.60
2022-09-03T08:09:08.844Z,1.60
2022-09-03T08:11:41.778Z,1.60
2022-09-03T08:14:14.245Z,1.60
2022-09-03T08:16:44.060Z,2.00
2022-09-03T08:19:13.531Z,1.48
2022-09-03T08:21:42.419Z,1.58
2022-09-03T08:24:11.800Z,1.45
2022-09-03T08:26:46.272Z,1.60
2022-09-03T08:29:15.058Z,1.50
2022-09-03T08:31:43.213Z,1.30
2022-09-03T08:34:12.032Z,1.30
2022-09-03T08:36:41.878Z,1.45
2022-09-03T08:39:11.329Z,1.45
2022-09-03T08:41:44.820Z,1.40
2022-09-03T08:44:26.386Z,1.30
2022-09-03T08:46:56.398Z,1.50
2022-09-03T08:49:47.275Z,1.52
2022-09-03T08:52:32.655Z,1.50
2022-09-03T08:55:17.748Z,1.77
2022-09-03T08:57:49.233Z,2.05
2022-09-03T09:00:18.331Z,1.30
2022-09-03T09:03:06.144Z,1.65
2022-09-03T09:05:48.171Z,1.60
2022-09-03T09:08:15.537Z,1.50
2022-09-03T09:10:49.765Z,1.98
2022-09-03T09:13:37.005Z,1.58
2022-09-03T09:16:37.203Z,1.40
2022-09-03T09:19:32.539Z,1.42
2022-09-03T09:22:05.480Z,1.73
2022-09-03T09:24:53.587Z,1.40
2022-09-03T09:27:20.879Z,1.33
2022-09-03T09:29:50.189Z,1.35
2022-09-03T09:32:21.772Z,1.58
2022-09-03T09:34:52.321Z,1.25
2022-09-03T09:37:20.692Z,1.63
2022-09-03T09:40:00.014Z,1.77
2022-09-03T09:42:30.133Z,1.67
2022-09-03T09:44:57.502Z,1.40
2022-09-03T09:47:34.225Z,1.50
2022-09-03T09:50:03.858Z,1.67
2022-09-03T09:52:31.820Z,1.73
2022-09-03T09:55:19.572Z,1.42
2022-09-03T09:57:47.043Z,1.58
2022-09-03T10:00:18.161Z,1.40
2022-09-03T10:02:51.363Z,1.27
2022-09-03T10:05:33.414Z,1.45
2022-09-03T10:08:04.960Z,1.30
2022-09-03T10:10:50.216Z,1.77
2022-09-03T10:13:42.004Z,1.80
2022-09-03T10:16:21.763Z,1.30
2022-09-03T10:19:10.507Z,1.38
2022-09-03T10:22:06.543Z,1.63
2022-09-03T10:25:08.318Z,1.73
2022-09-03T10:27:36.626Z,1.60
2022-09-03T10:30:08.969Z,1.60
2022-09-03T10:32:58.807Z,1.50
2022-09-03T10:35:37.074Z,1.55
2022-09-03T10:38:17.679Z,1.40
2022-09-03T10:41:05.513Z,1.40
2022-09-03T10:43:33.343Z,1.30
2022-09-03T10:46:27.043Z,1.48
2022-09-03T10:49:10.701Z,1.85
2022-09-03T10:51:53.188Z,1.30
2022-09-03T10:54:29.159Z,1.60
2022-09-03T10:57:20.888Z,1.60
2022-09-03T11:00:20.302Z,1.58
2022-09-03T11:03:10.606Z,1.40
2022-09-03T11:05:45.512Z,1.30
2022-09-03T11:08:22.195Z,1.67
2022-09-03T11:11:12.275Z,1.60
2022-09-03T11:13:47.243Z,1.50
2022-09-03T11:16:21.314Z,1.10
2022-09-03T11:19:04.558Z,1.30
2022-09-03T11:21:34.614Z,1.30
2022-09-03T11:24:16.328Z,1.33
2022-09-03T11:26:56.787Z,1.48
2022-09-03T11:29:57.580Z,1.55
2022-09-03T11:32:33.440Z,1.48
2022-09-03T11:35:01.890Z,1.40
2022-09-03T11:37:31.273Z,1.30
2022-09-03T11:40:20.228Z,1.60
2022-09-03T11:42:48.396Z,1.35
2022-09-03T11:45:27.924Z,1.50
2022-09-03T11:47:55.227Z,1.30
2022-09-03T11:50:30.569Z,1.40
2022-09-03T11:53:10.650Z,1.30
2022-09-03T11:55:54.925Z,1.20
2022-09-03T12:00:55.733Z,1.30
2022-09-03T12:03:41.791Z,1.30
2022-09-03T12:06:20.280Z,1.33
2022-09-03T12:08:53.811Z,1.20
2022-09-03T12:11:43.718Z,1.52
2022-09-03T12:14:21.865Z,1.50
2022-09-03T12:17:15.231Z,1.55
2022-09-03T12:20:13.840Z,1.10
2022-09-03T12:22:42.455Z,1.35
2022-09-03T12:25:15.307Z,1.38
2022-09-03T12:27:45.928Z,1.20
2022-09-03T12:30:31.132Z,1.60
2022-09-03T12:33:11.206Z,1.40
2022-09-03T12:38:27.711Z,1.15
2022-09-03T12:43:54.206Z,1.70
2022-09-03T12:46:33.139Z,1.17
2022-09-03T12:52:05.784Z,1.40
2022-09-03T12:54:38.154Z,1.45
2022-09-03T12:57:05.959Z,1.35
2022-09-03T12:59:37.521Z,1.65
2022-09-03T13:02:28.621Z,1.30
2022-09-03T13:04:56.932Z,1.10
2022-09-03T13:07:27.701Z,1.20
2022-09-03T13:10:04.008Z,1.27
2022-09-03T13:12:43.555Z,1.40
2022-09-03T13:15:21.298Z,1.35
2022-09-03T13:18:46.612Z,1.10
2022-09-03T13:21:32.586Z,1.42
2022-09-03T13:24:36.802Z,1.20
2022-09-03T13:27:26.417Z,1.48
2022-09-03T13:30:28.909Z,1.50
2022-09-03T13:33:22.603Z,1.98
2022-09-03T13:36:04.224Z,2.10
2022-09-03T13:38:52.004Z,1.45
2022-09-03T13:41:53.587Z,1.48
2022-09-03T13:44:42.520Z,1.35
2022-09-03T13:47:19.243Z,1.45
2022-09-03T13:50:23.948Z,1.20
2022-09-03T13:52:53.558Z,1.40
2022-09-03T13:55:51.922Z,1.10
2022-09-03T13:58:45.527Z,1.55
2022-09-03T14:01:59.590Z,1.40
2022-09-03T14:04:57.798Z,1.10
2022-09-03T14:07:49.427Z,1.15
2022-09-03T14:10:48.588Z,1.27
2022-09-03T14:13:51.821Z,1.17
2022-09-03T14:16:56.767Z,1.25
2022-09-03T14:19:28.078Z,1.50
2022-09-03T14:22:25.130Z,1.88
2022-09-03T14:25:22.443Z,1.30
2022-09-03T14:27:50.675Z,1.83
2022-09-03T14:31:02.052Z,1.80
2022-09-03T14:33:44.625Z,1.75
2022-09-03T14:36:24.435Z,1.67
2022-09-03T14:39:26.713Z,1.25
2022-09-03T14:42:37.525Z,1.88
2022-09-03T14:45:56.144Z,1.67
2022-09-03T14:48:49.680Z,1.20
2022-09-03T14:51:26.131Z,1.50
2022-09-03T14:54:16.102Z,1.75
2022-09-03T14:56:50.995Z,1.48
2022-09-03T14:59:36.547Z,1.40
2022-09-03T15:02:39.313Z,1.40
2022-09-03T15:05:12.302Z,1.60
2022-09-03T15:07:48.594Z,2.42
2022-09-03T15:10:32.125Z,2.70
2022-09-03T15:13:09.004Z,2.97
2022-09-03T15:15:42.647Z,2.70
2022-09-03T15:18:18.721Z,2.38
2022-09-03T15:20:53.161Z,1.95
2022-09-03T15:23:52.265Z,1.90
2022-09-03T15:26:59.386Z,1.30
2022-09-03T15:29:51.756Z,1.95
2022-09-03T15:32:27.725Z,1.73
2022-09-03T15:34:55.012Z,1.30
2022-09-03T15:37:28.683Z,1.77
2022-09-03T15:40:08.435Z,1.52
2022-09-03T15:42:36.879Z,1.42
2022-09-03T15:45:21.329Z,1.50
2022-09-03T15:48:01.750Z,1.40
2022-09-03T15:50:37.221Z,1.70
2022-09-03T15:53:26.200Z,1.48
2022-09-03T15:56:15.136Z,3.20
2022-09-03T15:59:00.538Z,1.77
2022-09-03T16:01:48.674Z,1.20
2022-09-03T16:04:16.125Z,1.20
2022-09-03T16:07:08.262Z,1.50
2022-09-03T16:13:05.253Z,1.00
2022-09-03T16:15:58.780Z,1.10
2022-09-03T16:18:36.180Z,1.00
2022-09-03T16:21:10.301Z,1.10
2022-09-03T16:23:55.503Z,1.20
2022-09-03T16:26:33.800Z,0.90
2022-09-03T16:29:14.007Z,1.35
2022-09-03T16:32:17.560Z,1.02
2022-09-03T16:35:00.217Z,1.40
2022-09-03T16:37:46.012Z,1.10
2022-09-03T16:40:56.875Z,1.15
2022-09-03T16:43:41.606Z,1.10
2022-09-03T16:46:09.141Z,0.98
2022-09-03T16:49:04.360Z,1.30
2022-09-03T16:54:42.478Z,1.10
2022-09-03T16:57:43.692Z,1.10
2022-09-03T17:00:16.452Z,0.90
2022-09-03T17:03:02.096Z,1.52
2022-09-03T17:05:36.293Z,1.10
2022-09-03T17:08:18.867Z,1.10
2022-09-03T17:11:01.300Z,0.82
2022-09-03T17:13:46.632Z,1.17
2022-09-03T17:16:24.756Z,1.30
2022-09-03T17:19:00.074Z,1.80
2022-09-03T17:22:06.167Z,1.20
2022-09-03T17:24:39.419Z,1.10
2022-09-03T17:27:21.278Z,1.40
2022-09-03T17:29:57.874Z,1.08
2022-09-03T17:32:57.721Z,1.30
2022-09-03T17:35:38.276Z,1.25
2022-09-03T17:38:17.985Z,1.40
2022-09-03T17:41:00.554Z,1.60
2022-09-03T17:43:39.973Z,1.40
2022-09-03T17:46:39.451Z,1.55
2022-09-03T17:49:08.911Z,1.40
2022-09-03T17:52:00.233Z,1.50
2022-09-03T17:54:49.813Z,1.88
2022-09-03T17:57:20.196Z,1.48
2022-09-03T17:59:56.476Z,1.60
2022-09-03T18:02:58.720Z,0.95
2022-09-03T18:05:44.350Z,1.42
2022-09-03T18:08:22.204Z,1.35
2022-09-03T18:11:14.606Z,1.42
2022-09-03T18:14:12.997Z,1.35
2022-09-03T18:17:15.533Z,1.58
2022-09-03T18:20:07.118Z,1.20
2022-09-03T18:23:15.395Z,1.48
2022-09-03T18:26:05.804Z,1.40
2022-09-03T18:29:17.702Z,1.38
2022-09-03T18:32:03.969Z,1.40
2022-09-03T18:34:55.198Z,1.38
2022-09-03T18:37:43.600Z,1.30
2022-09-03T18:40:41.252Z,1.60
2022-09-03T18:43:48.504Z,1.23
2022-09-03T18:50:07.652Z,1.27
2022-09-03T18:53:26.581Z,1.20
2022-09-03T18:56:57.293Z,1.10
2022-09-03T18:59:53.170Z,1.20
2022-09-03T19:02:56.434Z,1.17
2022-09-03T19:05:54.162Z,1.10
2022-09-03T19:08:51.448Z,1.38
2022-09-03T19:11:43.236Z,1.20
2022-09-03T19:14:44.471Z,1.30
2022-09-03T19:17:51.305Z,1.48
2022-09-03T19:20:49.175Z,1.50
2022-09-03T19:23:37.062Z,1.42
2022-09-03T19:26:43.328Z,1.30
2022-09-03T19:30:03.843Z,1.20
2022-09-03T19:33:23.124Z,1.60
2022-09-03T19:36:17.967Z,1.20
2022-09-03T19:39:30.283Z,1.65
2022-09-03T19:42:19.160Z,1.00
2022-09-03T19:45:07.819Z,1.10
2022-09-03T19:48:09.181Z,1.20
2022-09-03T19:51:01.998Z,1.02
2022-09-03T19:53:50.508Z,1.48
2022-09-03T19:56:46.154Z,1.13
2022-09-03T19:59:39.283Z,0.90
2022-09-03T20:02:25.175Z,1.02
2022-09-03T20:05:18.337Z,1.23
2022-09-03T20:08:08.692Z,1.02
2022-09-03T20:10:36.918Z,0.90
2022-09-03T20:13:10.146Z,1.10
2022-09-03T20:16:01.089Z,1.00
2022-09-03T20:19:05.100Z,1.13
2022-09-03T20:21:43.907Z,1.05
2022-09-03T20:24:21.496Z,1.10
2022-09-03T20:26:57.992Z,0.90
2022-09-03T20:29:54.964Z,0.93
2022-09-03T20:32:47.505Z,0.93
2022-09-03T20:35:46.564Z,0.90
2022-09-03T20:38:53.784Z,0.95
2022-09-03T20:44:13.195Z,0.65
2022-09-03T20:46:48.790Z,0.68
2022-09-03T20:49:53.234Z,0.80
2022-09-03T20:52:46.021Z,0.85
2022-09-03T20:55:23.799Z,0.98
2022-09-03T20:58:06.261Z,0.90
2022-09-03T21:00:58.135Z,0.80
2022-09-03T21:03:37.625Z,0.90
2022-09-03T21:06:20.632Z,0.80
2022-09-03T21:09:13.041Z,0.70
2022-09-03T21:11:55.436Z,0.80
2022-09-03T21:14:38.963Z,0.80
2022-09-03T21:17:18.538Z,0.80
2022-09-03T21:20:26.906Z,0.88
2022-09-03T21:23:23.968Z,0.80
2022-09-03T21:26:04.486Z,0.88
2022-09-03T21:28:56.032Z,0.70
2022-09-03T21:31:32.239Z,0.70
2022-09-03T21:34:12.061Z,1.00
2022-09-03T21:36:43.391Z,0.68
2022-09-03T21:39:20.241Z,0.90
2022-09-03T21:41:58.142Z,1.48
2022-09-03T21:44:36.244Z,0.60
2022-09-03T21:47:09.998Z,0.73
2022-09-03T21:49:57.483Z,0.90
2022-09-03T21:52:52.279Z,0.80
2022-09-03T21:55:46.671Z,0.70
2022-09-03T21:58:16.793Z,0.50
2022-09-03T22:00:46.244Z,0.65
2022-09-03T22:03:14.200Z,0.88
2022-09-03T22:05:57.516Z,0.70
2022-09-03T22:08:39.290Z,0.70
2022-09-03T22:11:16.495Z,0.70
2022-09-03T22:13:54.536Z,0.80
2022-09-03T22:16:39.401Z,0.77
2022-09-03T22:19:09.286Z,0.70
2022-09-03T22:21:44.494Z,0.80
2022-09-03T22:24:25.687Z,0.73
2022-09-03T22:26:58.381Z,0.82
2022-09-03T22:29:50.328Z,0.80
2022-09-03T22:32:34.089Z,0.82
2022-09-03T22:35:16.369Z,0.82
2022-09-03T22:37:52.193Z,0.70
2022-09-03T22:40:25.137Z,0.75
2022-09-03T22:43:11.851Z,0.90
2022-09-03T22:46:08.346Z,0.70
2022-09-03T22:48:44.756Z,0.75
2022-09-03T22:51:13.672Z,0.70
2022-09-03T22:53:50.119Z,0.70
2022-09-03T22:56:24.555Z,0.80
2022-09-03T23:02:03.773Z,0.80
2022-09-03T23:04:49.237Z,0.90
2022-09-03T23:07:54.814Z,0.90
2022-09-03T23:10:34.277Z,0.70
2022-09-03T23:13:19.037Z,1.20
2022-09-03T23:15:56.698Z,0.90
2022-09-03T23:18:27.363Z,0.75
2022-09-03T23:21:31.069Z,0.68
2022-09-03T23:24:16.748Z,0.90
2022-09-03T23:26:43.897Z,0.75
2022-09-03T23:29:26.475Z,0.90
2022-09-03T23:31:57.718Z,0.73
2022-09-03T23:34:26.091Z,0.77
2022-09-03T23:40:14.664Z,1.20
2022-09-03T23:43:03.744Z,0.85
2022-09-03T23:45:55.724Z,0.82
2022-09-03T23:48:37.727Z,0.70
2022-09-03T23:51:35.868Z,1.20
2022-09-03T23:54:25.221Z,1.10
2022-09-03T23:57:24.647Z,0.77
